Weston, Idaho
Current Conditions -  °F | °C
As of 5:51 PM on Sunday 23 Nov 2014 (Local Time) from KLGU Reporting Station
Broken Clouds Broken Clouds  
Wind Chill: 29°   Ceiling: 6000
Heat Index: 33°   Visibility: 10mi
Dew Point: 24°   Wind: 5mph
Humidity: 70%   Direction: 290°WNW
Pressure: 30.21"   Gusts: NA
Location:  42.04°N, 111.98°W
Report Text: KLGU 240051Z AUTO 29004KT 10SM FEW050 BKN060 01/M04 A3021 RMK AO2 SLP244 T00061044
Loading
Personal Weather Stations






























Interactive Weather Map New forecast layout! Learn more

10-Day Weather Forecast

Advertisements
Track Severe Weather on mobile